Time;durP1;ratioP1;P1;durP2;ratioP2;P2;SDS_P1;SDS_P2;PMS_P1;PMS_P2;Temp;Humidity;BMP_temperature;BMP_pressure;BME280_temperature;BME280_humidity;BME280_pressure;Samples;Min_cycle;Max_cycle;Signal;HPM_P1;HPM_P2
2023/02/17 00:00:03;;;;;;;;;;;;;;;6.77;65.15;98745.91;5067990;28;19939;-52
2023/02/17 00:02:56;;;;;;;;;;;;;;;6.92;64.28;98738.91;5068237;28;19954;-52
2023/02/17 00:05:25;;;;;;;;;;;;;;;6.95;64.39;98735.69;5072770;28;19939;-52
2023/02/17 00:07:53;;;;;;;;;;;;;;;6.94;64.75;98736.78;5071026;28;19946;-52
2023/02/17 00:10:21;;;;;;;;;;;;;;;6.95;64.56;98730.28;5055700;28;19935;-53
2023/02/17 00:12:51;;;;;;;;;;;;;;;6.97;64.54;98730.81;5056907;28;19963;-52
2023/02/17 00:15:19;;;;;;;;;;;;;;;6.97;64.47;98736.22;5062178;28;20300;-53
2023/02/17 00:17:48;;;;;;;;;;;;;;;6.96;64.42;98738.13;5073171;28;20238;-52
2023/02/17 00:20:16;;;;;;;;;;;;;;;6.97;64.22;98736.22;5060215;28;19932;-52
2023/02/17 00:22:44;;;;;;;;;;;;;;;7.00;64.45;98735.69;5069514;28;20049;-52
2023/02/17 00:25:12;;;;;;;;;;;;;;;6.97;64.13;98722.72;5070038;28;19942;-52
2023/02/17 00:27:40;;;;;;;;;;;;;;;6.98;64.64;98719.78;5066112;28;20379;-52
2023/02/17 00:30:10;;;;;;;;;;;;;;;7.07;64.24;98723.53;5065747;28;19967;-52
2023/02/17 00:32:38;;;;;;;;;;;;;;;7.14;63.81;98725.16;5067549;28;19951;-52
2023/02/17 00:35:07;;;;;;;;;;;;;;;7.19;63.54;98726.00;5067255;28;19939;-52
2023/02/17 00:40:28;;;;;;;;;;;;;;;7.15;63.71;98730.31;5058409;28;19966;-52
2023/02/17 00:42:56;;;;;;;;;;;;;;;7.16;63.43;98731.13;5060913;28;19970;-53
2023/02/17 00:48:20;;;;;;;;;;;;;;;7.12;63.46;98736.25;5072164;28;19954;-53
2023/02/17 00:50:48;;;;;;;;;;;;;;;7.13;63.72;98724.34;5065163;28;19942;-55
2023/02/17 00:53:16;;;;;;;;;;;;;;;7.06;63.92;98721.13;5066186;28;19966;-52
2023/02/17 00:55:44;;;;;;;;;;;;;;;7.02;64.17;98730.84;5069277;28;20590;-53
2023/02/17 00:58:11;;;;;;;;;;;;;;;7.07;64.20;98733.53;5068921;28;19943;-52
2023/02/17 01:00:41;;;;;;;;;;;;;;;7.12;63.86;98725.44;5066525;28;19939;-53
2023/02/17 01:03:10;;;;;;;;;;;;;;;7.07;63.78;98728.94;5070259;28;20372;-52
2023/02/17 01:05:40;;;;;;;;;;;;;;;7.01;64.18;98727.31;5059531;28;20419;-52
2023/02/17 01:08:08;;;;;;;;;;;;;;;7.11;64.07;98726.53;5070159;28;19947;-53
2023/02/17 01:10:37;;;;;;;;;;;;;;;7.11;63.86;98720.31;5058306;28;19939;-52
2023/02/17 01:13:05;;;;;;;;;;;;;;;7.12;63.97;98727.34;5057009;28;19955;-52
2023/02/17 01:15:36;;;;;;;;;;;;;;;7.03;63.86;98729.75;5063692;28;20395;-52
2023/02/17 01:18:06;;;;;;;;;;;;;;;7.08;63.74;98729.75;5071938;28;19939;-53
2023/02/17 01:20:59;;;;;;;;;;;;;;;7.02;63.95;98728.94;5069495;28;20312;-53
2023/02/17 01:23:27;;;;;;;;;;;;;;;6.99;64.00;98732.19;5101814;28;19958;-53
2023/02/17 01:25:55;;;;;;;;;;;;;;;6.99;64.05;98731.38;5070650;28;19973;-52
2023/02/17 01:28:23;;;;;;;;;;;;;;;6.99;63.89;98725.97;5061618;28;20422;-52
2023/02/17 01:30:52;;;;;;;;;;;;;;;7.00;64.15;98717.59;5066772;28;19985;-52
2023/02/17 01:33:23;;;;;;;;;;;;;;;7.01;63.97;98708.41;5058324;28;19939;-52
2023/02/17 01:35:51;;;;;;;;;;;;;;;7.00;64.07;98712.19;5065920;28;20375;-53
2023/02/17 01:38:19;;;;;;;;;;;;;;;7.05;63.95;98708.69;5070287;28;20045;-52
2023/02/17 01:43:40;;;;;;;;;;;;;;;6.99;64.56;98688.16;5065020;28;19954;-52
2023/02/17 01:46:09;;;;;;;;;;;;;;;7.01;64.35;98691.38;5061314;28;19997;-52
2023/02/17 01:48:40;;;;;;;;;;;;;;;7.07;63.95;98698.41;5101416;28;19977;-53
2023/02/17 01:51:09;;;;;;;;;;;;;;;7.06;64.17;98691.41;5061773;28;19951;-53
2023/02/17 01:53:37;;;;;;;;;;;;;;;6.94;64.35;98685.44;5055749;28;20000;-53
2023/02/17 01:56:31;;;;;;;;;;;;;;;6.98;64.27;98683.84;5094155;28;19968;-52
2023/02/17 01:58:59;;;;;;;;;;;;;;;7.04;64.13;98680.06;5065293;28;19950;-53
2023/02/17 02:01:28;;;;;;;;;;;;;;;7.01;63.87;98675.19;5060713;28;19959;-52
2023/02/17 02:03:58;;;;;;;;;;;;;;;7.07;63.51;98677.59;5069149;28;19955;-53
2023/02/17 02:06:26;;;;;;;;;;;;;;;7.02;64.13;98671.41;5056345;28;19939;-53
2023/02/17 02:08:56;;;;;;;;;;;;;;;7.02;64.03;98656.00;5064560;28;20296;-58
2023/02/17 02:11:24;;;;;;;;;;;;;;;7.01;63.92;98654.38;5056477;28;19965;-53
2023/02/17 02:14:24;;;;;;;;;;;;;;;7.05;63.92;98660.06;5069671;28;19958;-53
2023/02/17 02:16:53;;;;;;;;;;;;;;;6.99;64.32;98659.25;5083219;28;19962;-53
2023/02/17 02:19:30;;;;;;;;;;;;;;;7.04;64.27;98664.66;5067531;28;19935;-53
2023/02/17 02:22:23;;;;;;;;;;;;;;;7.01;64.26;98653.56;5061850;28;19946;-53
2023/02/17 02:24:53;;;;;;;;;;;;;;;7.12;64.97;98655.19;5065985;28;19996;-53
2023/02/17 02:27:26;;;;;;;;;;;;;;;7.07;65.93;98647.09;5065476;28;19924;-52
2023/02/17 02:30:01;;;;;;;;;;;;;;;7.06;67.96;98648.97;5069636;28;19939;-53
2023/02/17 02:32:40;;;;;;;;;;;;;;;7.01;68.20;98638.16;5064883;28;19958;-52
2023/02/17 02:35:09;;;;;;;;;;;;;;;6.99;69.28;98644.94;5068212;28;19938;-52
2023/02/17 02:37:39;;;;;;;;;;;;;;;6.94;69.87;98642.22;5068975;28;19942;-52
2023/02/17 02:40:08;;;;;;;;;;;;;;;6.88;70.23;98638.72;5058938;28;20048;-52
2023/02/17 02:42:36;;;;;;;;;;;;;;;6.86;70.28;98629.25;5096315;28;19959;-52
2023/02/17 02:45:06;;;;;;;;;;;;;;;6.87;70.66;98631.69;5073330;28;19981;-53
2023/02/17 02:47:45;;;;;;;;;;;;;;;6.98;69.94;98625.22;5066517;28;20327;-52
2023/02/17 02:50:18;;;;;;;;;;;;;;;6.98;71.04;98627.09;5086881;28;19978;-52
2023/02/17 02:52:55;;;;;;;;;;;;;;;6.92;71.28;98626.28;5059225;28;19947;-53
2023/02/17 02:55:26;;;;;;;;;;;;;;;6.89;71.13;98623.31;5072929;28;19945;-52
2023/02/17 02:57:57;;;;;;;;;;;;;;;6.87;71.65;98625.47;5070717;28;20037;-52
2023/02/17 03:00:27;;;;;;;;;;;;;;;6.88;72.61;98624.41;5082922;28;19941;-52
2023/02/17 03:02:58;;;;;;;;;;;;;;;6.85;71.43;98622.22;5071802;28;19955;-52
2023/02/17 03:05:26;;;;;;;;;;;;;;;6.90;71.72;98616.84;5072981;28;19939;-52
2023/02/17 03:07:55;;;;;;;;;;;;;;;6.93;71.45;98619.81;5071232;28;19939;-52
2023/02/17 03:10:23;;;;;;;;;;;;;;;7.05;70.83;98619.53;5069234;28;19935;-52
2023/02/17 03:12:51;;;;;;;;;;;;;;;6.99;71.11;98612.50;5060788;28;19959;-53
2023/02/17 03:15:20;;;;;;;;;;;;;;;7.08;70.74;98616.28;5068662;28;20458;-52
2023/02/17 03:17:48;;;;;;;;;;;;;;;6.99;71.08;98609.81;5070767;28;19943;-53
2023/02/17 03:20:18;;;;;;;;;;;;;;;7.01;71.86;98613.03;5073176;28;19939;-53
2023/02/17 03:22:47;;;;;;;;;;;;;;;6.97;72.61;98609.25;5099720;28;19955;-52
2023/02/17 03:25:16;;;;;;;;;;;;;;;6.91;72.08;98616.56;5072623;28;19939;-52
2023/02/17 03:27:44;;;;;;;;;;;;;;;6.92;73.13;98612.75;5100780;28;19958;-52
2023/02/17 03:30:14;;;;;;;;;;;;;;;6.92;72.95;98611.97;5067653;28;20008;-52
2023/02/17 03:32:42;;;;;;;;;;;;;;;7.04;71.21;98609.81;5099425;28;19951;-52
2023/02/17 03:35:10;;;;;;;;;;;;;;;7.03;72.22;98608.16;5074103;28;19943;-53
2023/02/17 03:37:40;;;;;;;;;;;;;;;7.17;69.78;98614.66;5073208;28;19935;-53
2023/02/17 03:40:08;;;;;;;;;;;;;;;7.11;71.07;98612.22;5075459;28;19954;-63
2023/02/17 03:42:36;;;;;;;;;;;;;;;7.05;71.49;98614.13;5067138;28;19943;-52
2023/02/17 03:45:04;;;;;;;;;;;;;;;7.06;71.04;98613.03;5059836;28;19946;-55
2023/02/17 03:47:32;;;;;;;;;;;;;;;7.05;71.27;98609.53;5063729;28;19955;-53
2023/02/17 03:50:02;;;;;;;;;;;;;;;7.06;71.71;98613.84;5073734;28;19978;-56
2023/02/17 03:52:30;;;;;;;;;;;;;;;7.11;70.68;98610.34;5068214;28;19939;-56
2023/02/17 03:54:59;;;;;;;;;;;;;;;7.07;71.75;98611.97;5064149;28;19985;-59
2023/02/17 03:57:27;;;;;;;;;;;;;;;7.03;71.71;98614.41;5070246;28;19939;-53
2023/02/17 03:59:55;;;;;;;;;;;;;;;7.06;72.19;98610.34;5070901;28;20407;-53
2023/02/17 04:02:23;;;;;;;;;;;;;;;6.99;72.85;98613.31;5065116;28;19966;-52
2023/02/17 04:04:51;;;;;;;;;;;;;;;6.98;73.17;98613.59;5069836;28;19965;-53
2023/02/17 04:07:19;;;;;;;;;;;;;;;6.96;73.44;98613.03;5077917;28;19946;-54
2023/02/17 04:09:48;;;;;;;;;;;;;;;6.92;72.86;98612.75;5076538;28;19947;-53
2023/02/17 04:12:17;;;;;;;;;;;;;;;7.02;73.70;98610.06;5076977;28;19966;-53
2023/02/17 04:14:45;;;;;;;;;;;;;;;6.94;74.10;98607.91;5073308;28;19942;-52
2023/02/17 04:17:13;;;;;;;;;;;;;;;6.92;73.65;98606.56;5067845;28;19954;-62
2023/02/17 04:19:41;;;;;;;;;;;;;;;6.92;73.92;98601.97;5063143;28;19950;-52
2023/02/17 04:22:12;;;;;;;;;;;;;;;6.89;73.45;98607.91;5065679;28;19963;-53
2023/02/17 04:24:41;;;;;;;;;;;;;;;6.85;74.48;98606.03;5073867;28;19993;-52
2023/02/17 04:27:08;;;;;;;;;;;;;;;6.75;74.73;98606.81;5068494;28;19962;-53
2023/02/17 04:29:40;;;;;;;;;;;;;;;6.76;75.08;98613.84;5070803;28;19997;-54
2023/02/17 04:32:08;;;;;;;;;;;;;;;6.73;74.97;98609.81;5067645;28;19986;-54
2023/02/17 04:34:38;;;;;;;;;;;;;;;6.73;75.56;98607.09;5073334;28;19942;-53
2023/02/17 04:37:07;;;;;;;;;;;;;;;6.74;74.81;98606.03;5076744;28;20334;-61
2023/02/17 04:39:35;;;;;;;;;;;;;;;6.77;75.38;98610.88;5074270;28;19935;-53
2023/02/17 04:42:03;;;;;;;;;;;;;;;6.77;75.11;98608.19;5060025;28;19940;-53
2023/02/17 04:44:30;;;;;;;;;;;;;;;6.85;74.62;98608.72;5072401;28;19951;-53
2023/02/17 04:47:00;;;;;;;;;;;;;;;6.83;74.05;98603.59;5068649;28;20416;-52
2023/02/17 04:49:32;;;;;;;;;;;;;;;6.83;74.14;98596.31;5062464;28;19943;-53
2023/02/17 04:51:59;;;;;;;;;;;;;;;6.83;73.97;98592.78;5065167;28;19946;-55
2023/02/17 04:54:27;;;;;;;;;;;;;;;6.81;74.37;98603.03;5066062;28;20559;-52
2023/02/17 04:56:55;;;;;;;;;;;;;;;6.83;74.52;98599.00;5067963;28;20400;-53
2023/02/17 04:59:23;;;;;;;;;;;;;;;6.82;74.33;98591.19;5068118;28;19966;-52
2023/02/17 05:01:52;;;;;;;;;;;;;;;6.83;74.04;98593.59;5066091;28;19959;-52
2023/02/17 05:04:22;;;;;;;;;;;;;;;6.88;74.05;98603.59;5062381;28;20041;-52
2023/02/17 05:06:50;;;;;;;;;;;;;;;6.86;74.05;98597.66;5070286;28;19949;-52
2023/02/17 05:09:18;;;;;;;;;;;;;;;6.95;73.11;98592.53;5057594;28;19942;-52
2023/02/17 05:11:45;;;;;;;;;;;;;;;6.93;73.14;98592.00;5061778;28;19925;-52
2023/02/17 05:17:11;;;;;;;;;;;;;;;7.07;72.25;98587.63;5062915;28;19951;-56
2023/02/17 05:19:41;;;;;;;;;;;;;;;6.98;72.18;98595.50;5069833;28;19938;-52
2023/02/17 05:22:11;;;;;;;;;;;;;;;6.95;72.26;98579.81;5065689;28;19943;-53
2023/02/17 05:24:43;;;;;;;;;;;;;;;7.03;72.21;98583.84;5064735;28;20003;-52
2023/02/17 05:27:11;;;;;;;;;;;;;;;7.07;71.80;98587.63;5062395;28;19958;-53
2023/02/17 05:29:39;;;;;;;;;;;;;;;7.04;72.04;98583.59;5059467;28;19955;-52
2023/02/17 05:32:07;;;;;;;;;;;;;;;7.04;71.88;98585.50;5060240;28;19952;-52
2023/02/17 05:34:35;;;;;;;;;;;;;;;7.06;71.13;98584.13;5069282;28;20380;-52
2023/02/17 05:37:04;;;;;;;;;;;;;;;7.11;70.60;98580.63;5065527;28;19989;-52
2023/02/17 05:39:32;;;;;;;;;;;;;;;7.20;69.72;98575.47;5057434;28;20349;-52
2023/02/17 05:42:00;;;;;;;;;;;;;;;7.22;69.20;98584.94;5059919;28;19939;-53
2023/02/17 05:44:28;;;;;;;;;;;;;;;7.26;69.15;98590.59;5063503;28;19952;-52
2023/02/17 05:46:56;;;;;;;;;;;;;;;7.32;68.79;98574.09;5057637;28;19955;-52
2023/02/17 05:49:25;;;;;;;;;;;;;;;7.43;68.43;98579.47;5064178;28;19939;-52
2023/02/17 05:51:52;;;;;;;;;;;;;;;7.45;67.61;98577.31;5060434;28;20046;-52
2023/02/17 05:54:21;;;;;;;;;;;;;;;7.50;67.24;98574.59;5054509;28;19935;-52
2023/02/17 05:56:49;;;;;;;;;;;;;;;7.51;67.04;98581.59;5067157;28;19947;-53
2023/02/17 05:59:17;;;;;;;;;;;;;;;7.57;66.33;98577.84;5062287;28;19942;-52
2023/02/17 06:01:45;;;;;;;;;;;;;;;7.69;65.74;98583.72;5048936;28;20869;-53
2023/02/17 06:04:13;;;;;;;;;;;;;;;7.71;66.00;98584.25;5059200;28;19966;-51
2023/02/17 06:06:41;;;;;;;;;;;;;;;7.80;65.72;98585.31;5054275;28;19947;-52
2023/02/17 06:09:09;;;;;;;;;;;;;;;7.94;65.30;98590.13;5054202;28;20419;-55
2023/02/17 06:11:41;;;;;;;;;;;;;;;7.87;65.54;98593.13;5056859;28;19967;-53
2023/02/17 06:14:34;;;;;;;;;;;;;;;7.84;65.39;98594.50;5058897;28;19943;-53
2023/02/17 06:17:51;;;;;;;;;;;;;;;7.85;65.19;98596.13;5059176;28;19962;-53
2023/02/17 06:20:20;;;;;;;;;;;;;;;7.84;65.53;98599.91;5062138;28;20449;-52
2023/02/17 06:22:48;;;;;;;;;;;;;;;8.01;65.25;98593.34;5065316;28;19938;-54
2023/02/17 06:25:17;;;;;;;;;;;;;;;8.04;65.44;98595.47;5062747;28;19959;-55
2023/02/17 06:27:46;;;;;;;;;;;;;;;8.08;65.03;98600.06;5065661;28;19935;-53
2023/02/17 06:30:17;;;;;;;;;;;;;;;8.04;64.79;98598.19;5050349;28;19938;-54
2023/02/17 06:32:46;;;;;;;;;;;;;;;7.99;65.81;98598.22;5059909;28;19951;-52
2023/02/17 06:35:14;;;;;;;;;;;;;;;8.00;66.00;98597.94;5061060;28;19942;-52
2023/02/17 06:37:43;;;;;;;;;;;;;;;7.95;65.99;98602.56;5061358;28;19939;-53
2023/02/17 06:40:11;;;;;;;;;;;;;;;7.97;65.77;98603.09;5066168;28;19946;-55
2023/02/17 06:42:39;;;;;;;;;;;;;;;7.98;65.87;98596.59;5057760;28;19960;-52
2023/02/17 06:45:09;;;;;;;;;;;;;;;8.08;65.44;98596.56;5062081;28;20438;-52
2023/02/17 06:47:37;;;;;;;;;;;;;;;8.08;65.44;98591.13;5060409;28;19924;-52
2023/02/17 06:50:06;;;;;;;;;;;;;;;8.15;65.33;98597.06;5062882;28;20345;-52
2023/02/17 06:52:34;;;;;;;;;;;;;;;8.24;64.90;98592.69;5056758;28;19935;-51
2023/02/17 06:55:02;;;;;;;;;;;;;;;8.20;64.84;98590.81;5064542;28;20384;-51
2023/02/17 06:57:30;;;;;;;;;;;;;;;8.28;65.31;98595.66;5060844;28;19936;-52
2023/02/17 06:59:59;;;;;;;;;;;;;;;8.41;65.23;98600.47;5062538;28;19947;-52
2023/02/17 07:02:28;;;;;;;;;;;;;;;8.39;64.72;98602.66;5052447;28;20024;-52
2023/02/17 07:04:56;;;;;;;;;;;;;;;8.38;64.74;98606.44;5100241;28;19954;-53
2023/02/17 07:07:25;;;;;;;;;;;;;;;8.62;64.73;98601.94;5060875;28;19929;-52
2023/02/17 07:09:52;;;;;;;;;;;;;;;8.73;65.06;98613.50;5064464;28;19939;-52
2023/02/17 07:12:20;;;;;;;;;;;;;;;8.65;65.50;98608.72;5056828;28;19967;-52
2023/02/17 07:14:48;;;;;;;;;;;;;;;8.73;65.43;98616.22;5055471;28;19939;-52
2023/02/17 07:17:16;;;;;;;;;;;;;;;8.80;66.08;98614.03;5063725;28;19924;-51
2023/02/17 07:20:11;;;;;;;;;;;;;;;8.98;66.07;98614.44;5070583;28;20037;-51
2023/02/17 07:22:39;;;;;;;;;;;;;;;9.06;66.29;98611.13;5059624;28;20017;-56
2023/02/17 07:25:07;;;;;;;;;;;;;;;9.08;66.40;98611.63;5053756;28;19959;-53
2023/02/17 07:27:36;;;;;;;;;;;;;;;9.18;66.62;98608.84;5061346;28;20296;-52
2023/02/17 07:30:05;;;;;;;;;;;;;;;9.13;66.59;98589.91;5060082;28;20455;-56
2023/02/17 07:32:34;;;;;;;;;;;;;;;9.21;67.11;98610.16;5055352;28;19962;-55
2023/02/17 07:35:02;;;;;;;;;;;;;;;9.24;67.56;98617.72;5052498;28;19942;-56
2023/02/17 07:37:32;;;;;;;;;;;;;;;9.23;67.69;98611.50;5053136;28;19989;-52
2023/02/17 07:40:00;;;;;;;;;;;;;;;9.27;67.88;98617.16;5035185;28;19944;-52
2023/02/17 07:42:28;;;;;;;;;;;;;;;9.22;67.88;98600.94;5063829;28;19955;-52
2023/02/17 07:44:56;;;;;;;;;;;;;;;9.31;68.03;98604.66;5072550;28;20000;-52
2023/02/17 07:47:24;;;;;;;;;;;;;;;9.31;68.10;98607.34;5066928;28;19981;-51
2023/02/17 07:49:52;;;;;;;;;;;;;;;9.24;68.41;98609.59;5069796;28;19945;-52
2023/02/17 07:52:20;;;;;;;;;;;;;;;9.29;68.37;98604.94;5066196;28;19943;-52
2023/02/17 07:54:49;;;;;;;;;;;;;;;9.25;68.52;98612.00;5061582;28;19943;-52
2023/02/17 07:57:18;;;;;;;;;;;;;;;9.29;68.69;98629.34;5066005;28;20410;-52
2023/02/17 07:59:46;;;;;;;;;;;;;;;9.32;68.62;98636.91;5065671;28;20280;-52
2023/02/17 08:02:15;;;;;;;;;;;;;;;9.31;68.72;98643.41;5064015;28;19924;-53
2023/02/17 08:04:46;;;;;;;;;;;;;;;9.38;68.50;98640.38;5064265;28;19954;-52
2023/02/17 08:07:14;;;;;;;;;;;;;;;9.31;68.98;98635.28;5061228;28;20026;-52
2023/02/17 08:15:19;;;;;;;;;;;;;;;9.38;68.74;98643.09;5052378;28;20358;-52
2023/02/17 08:17:48;;;;;;;;;;;;;;;9.43;68.55;98635.72;5066416;28;19954;-52
2023/02/17 08:20:18;;;;;;;;;;;;;;;9.39;68.91;98631.97;5075491;28;19943;-52
2023/02/17 08:22:46;;;;;;;;;;;;;;;9.38;68.95;98638.47;5069245;28;19935;-52
2023/02/17 08:25:14;;;;;;;;;;;;;;;9.30;68.89;98638.28;5067137;28;19943;-52
2023/02/17 08:27:43;;;;;;;;;;;;;;;9.34;69.24;98642.84;5072871;28;19935;-52
2023/02/17 08:30:11;;;;;;;;;;;;;;;9.42;68.90;98634.09;5061298;28;19946;-53
2023/02/17 08:32:39;;;;;;;;;;;;;;;9.43;68.82;98634.91;5062268;28;19965;-52
2023/02/17 08:35:09;;;;;;;;;;;;;;;9.45;68.77;98641.66;5068569;28;20390;-53
2023/02/17 08:37:37;;;;;;;;;;;;;;;9.45;68.84;98638.94;5060313;28;19943;-53
2023/02/17 08:40:06;;;;;;;;;;;;;;;9.37;69.25;98639.56;5066321;28;20261;-53
2023/02/17 08:42:34;;;;;;;;;;;;;;;9.45;69.23;98640.84;5070598;28;19942;-53
2023/02/17 08:45:04;;;;;;;;;;;;;;;9.49;69.18;98641.09;5072006;28;19985;-52
2023/02/17 08:47:34;;;;;;;;;;;;;;;9.41;69.82;98640.59;5067529;28;19962;-53
2023/02/17 08:50:03;;;;;;;;;;;;;;;9.40;69.78;98655.28;5076328;28;19939;-52
2023/02/17 08:52:31;;;;;;;;;;;;;;;9.45;69.67;98657.94;5070208;28;19946;-52
2023/02/17 08:54:59;;;;;;;;;;;;;;;9.43;70.17;98659.34;5064683;28;19939;-52
2023/02/17 08:57:28;;;;;;;;;;;;;;;9.43;70.34;98668.28;5061432;28;20410;-53
2023/02/17 08:59:57;;;;;;;;;;;;;;;9.44;70.19;98661.75;5066880;28;19942;-52
2023/02/17 09:02:26;;;;;;;;;;;;;;;9.36;70.60;98667.78;5060151;28;19955;-52
2023/02/17 09:04:55;;;;;;;;;;;;;;;9.33;71.04;98662.13;5068797;28;20448;-52
2023/02/17 09:07:23;;;;;;;;;;;;;;;9.39;71.23;98663.69;5070787;28;19955;-54
2023/02/17 09:09:51;;;;;;;;;;;;;;;9.41;70.87;98666.91;5068942;28;20284;-52
2023/02/17 09:12:19;;;;;;;;;;;;;;;9.42;71.15;98668.53;5069235;28;20450;-52
2023/02/17 09:14:53;;;;;;;;;;;;;;;9.45;70.96;98659.84;5068696;28;19943;-53
2023/02/17 09:17:48;;;;;;;;;;;;;;;9.54;70.87;98662.75;5068826;28;19966;-58
2023/02/17 09:20:18;;;;;;;;;;;;;;;9.50;70.74;98665.22;5060968;28;19943;-52
2023/02/17 09:22:52;;;;;;;;;;;;;;;9.51;70.98;98664.13;5067950;28;19949;-52
2023/02/17 09:25:20;;;;;;;;;;;;;;;9.44;71.40;98664.47;5069135;28;19924;-52
2023/02/17 09:27:48;;;;;;;;;;;;;;;9.47;71.48;98659.53;5060761;28;19928;-52
2023/02/17 09:30:17;;;;;;;;;;;;;;;9.53;71.37;98652.97;5063527;28;20427;-51
2023/02/17 09:32:45;;;;;;;;;;;;;;;9.55;71.55;98657.03;5069245;28;19943;-52
2023/02/17 09:35:15;;;;;;;;;;;;;;;9.51;71.93;98655.97;5071828;28;20000;-52
2023/02/17 09:37:43;;;;;;;;;;;;;;;9.51;72.03;98657.88;5070045;28;20396;-52
2023/02/17 09:40:15;;;;;;;;;;;;;;;9.51;72.10;98655.19;5071743;28;19992;-52
2023/02/17 09:42:43;;;;;;;;;;;;;;;9.50;72.14;98650.84;5063120;28;19939;-52
2023/02/17 09:45:13;;;;;;;;;;;;;;;9.48;72.48;98648.44;5066031;28;19961;-52
2023/02/17 09:47:42;;;;;;;;;;;;;;;9.44;72.81;98650.91;5064168;28;19962;-52
2023/02/17 09:50:11;;;;;;;;;;;;;;;9.60;72.19;98651.56;5071171;28;20029;-52
2023/02/17 09:52:42;;;;;;;;;;;;;;;9.53;72.60;98651.06;5061359;28;20384;-52
2023/02/17 09:55:11;;;;;;;;;;;;;;;9.61;72.39;98652.38;5067415;28;20045;-52
2023/02/17 09:57:42;;;;;;;;;;;;;;;9.60;72.66;98648.03;5066344;28;19939;-52
2023/02/17 10:00:11;;;;;;;;;;;;;;;9.61;72.38;98645.03;5067367;28;19950;-53
2023/02/17 10:02:41;;;;;;;;;;;;;;;9.54;72.72;98649.19;5066150;28;19959;-52
2023/02/17 10:05:10;;;;;;;;;;;;;;;9.58;72.56;98647.50;5052848;28;19973;-52
2023/02/17 10:07:41;;;;;;;;;;;;;;;9.61;72.81;98650.47;5067015;28;20289;-51
2023/02/17 10:10:14;;;;;;;;;;;;;;;9.62;73.07;98649.34;5062597;28;19950;-52
2023/02/17 10:12:44;;;;;;;;;;;;;;;9.56;73.16;98642.38;5063049;28;20501;-52
2023/02/17 10:15:15;;;;;;;;;;;;;;;9.56;73.31;98647.00;5060162;28;19939;-52
2023/02/17 10:17:46;;;;;;;;;;;;;;;9.57;73.41;98635.03;5065665;28;20293;-52
2023/02/17 10:20:16;;;;;;;;;;;;;;;9.61;73.41;98633.38;5059326;28;20006;-51
2023/02/17 10:22:48;;;;;;;;;;;;;;;9.66;73.31;98636.84;5061889;28;19939;-52
2023/02/17 10:25:20;;;;;;;;;;;;;;;9.73;73.28;98639.22;5066589;28;19955;-51
2023/02/17 10:27:48;;;;;;;;;;;;;;;9.67;73.60;98643.88;5070020;28;20446;-52
2023/02/17 10:30:23;;;;;;;;;;;;;;;9.78;73.48;98632.94;5050846;28;19966;-53
2023/02/17 10:32:56;;;;;;;;;;;;;;;9.77;73.69;98637.53;5062592;28;19946;-52
2023/02/17 10:38:24;;;;;;;;;;;;;;;9.71;74.19;98638.69;5058319;28;20351;-52
2023/02/17 10:40:52;;;;;;;;;;;;;;;9.82;74.01;98640.22;5056573;28;20296;-52
2023/02/17 10:43:21;;;;;;;;;;;;;;;9.82;73.94;98632.06;5066032;28;19939;-52
2023/02/17 10:45:50;;;;;;;;;;;;;;;9.86;73.64;98633.09;5057440;28;20708;-54
2023/02/17 10:48:19;;;;;;;;;;;;;;;9.92;73.66;98629.22;5057446;28;20301;-51
2023/02/17 10:50:47;;;;;;;;;;;;;;;9.87;73.75;98631.19;5064741;28;19932;-52
2023/02/17 10:53:16;;;;;;;;;;;;;;;9.88;73.89;98625.47;5062980;28;19932;-53
2023/02/17 10:55:50;;;;;;;;;;;;;;;9.89;73.80;98627.09;5066740;28;19986;-53
2023/02/17 10:58:19;;;;;;;;;;;;;;;9.92;73.65;98629.22;5069067;28;19924;-52
2023/02/17 11:00:48;;;;;;;;;;;;;;;10.03;73.29;98624.50;5060317;28;20373;-52
2023/02/17 11:03:20;;;;;;;;;;;;;;;9.95;73.49;98617.78;5058775;28;19925;-52
2023/02/17 11:05:52;;;;;;;;;;;;;;;10.03;73.52;98619.06;5058851;28;19940;-53
2023/02/17 11:08:24;;;;;;;;;;;;;;;9.95;73.72;98611.56;5064171;28;19925;-53
2023/02/17 11:11:00;;;;;;;;;;;;;;;10.08;73.32;98605.44;5060103;28;19997;-53
2023/02/17 11:13:30;;;;;;;;;;;;;;;9.98;73.71;98606.34;5053822;28;20413;-53
2023/02/17 11:15:59;;;;;;;;;;;;;;;9.99;73.54;98596.31;5058280;28;19928;-54
2023/02/17 11:18:28;;;;;;;;;;;;;;;10.15;72.85;98588.78;5094380;28;19925;-52
2023/02/17 11:21:00;;;;;;;;;;;;;;;10.14;72.91;98587.16;5074500;28;20373;-52
2023/02/17 11:23:27;;;;;;;;;;;;;;;10.14;72.72;98570.88;5066708;28;19932;-52
2023/02/17 11:26:00;;;;;;;;;;;;;;;10.15;72.77;98577.91;5066385;28;19960;-52
2023/02/17 11:28:28;;;;;;;;;;;;;;;10.19;72.45;98573.53;5060052;28;19928;-52
2023/02/17 11:30:57;;;;;;;;;;;;;;;10.20;72.45;98575.13;5055041;28;19925;-53
2023/02/17 11:33:29;;;;;;;;;;;;;;;10.15;72.50;98576.00;5057093;28;20414;-53
2023/02/17 11:35:58;;;;;;;;;;;;;;;10.16;72.69;98568.66;5063696;28;19924;-53
2023/02/17 11:38:27;;;;;;;;;;;;;;;10.19;72.70;98565.38;5065368;28;19924;-52
2023/02/17 11:40:56;;;;;;;;;;;;;;;10.17;73.00;98567.56;5072347;28;19924;-52
2023/02/17 11:43:27;;;;;;;;;;;;;;;10.21;72.87;98571.31;5070210;28;19931;-52
2023/02/17 11:46:07;;;;;;;;;;;;;;;10.15;73.42;98567.84;5065047;28;19932;-52
2023/02/17 11:48:40;;;;;;;;;;;;;;;10.18;73.66;98570.00;5061220;28;19933;-52
2023/02/17 11:51:11;;;;;;;;;;;;;;;10.19;74.79;98570.81;5069197;28;20016;-52
2023/02/17 11:53:44;;;;;;;;;;;;;;;10.19;76.12;98573.53;5067285;28;19932;-53
2023/02/17 11:56:17;;;;;;;;;;;;;;;10.10;77.86;98564.41;5070660;28;19924;-52
2023/02/17 11:59:00;;;;;;;;;;;;;;;10.04;78.60;98571.00;5061708;28;19931;-52
2023/02/17 12:01:38;;;;;;;;;;;;;;;10.05;78.89;98572.63;5063240;28;19932;-52
2023/02/17 12:04:32;;;;;;;;;;;;;;;10.07;78.85;98565.00;5062165;28;20293;-52
2023/02/17 12:07:06;;;;;;;;;;;;;;;10.03;79.08;98553.09;5061163;28;19935;-52
2023/02/17 12:09:37;;;;;;;;;;;;;;;10.09;79.02;98560.88;5065701;28;20389;-53
2023/02/17 12:12:10;;;;;;;;;;;;;;;10.02;79.03;98567.78;5068321;28;20028;-53
2023/02/17 12:14:48;;;;;;;;;;;;;;;9.97;79.29;98566.75;5066817;28;19928;-52
2023/02/17 12:17:17;;;;;;;;;;;;;;;10.00;79.32;98572.69;5059164;28;19967;-53
2023/02/17 12:20:17;;;;;;;;;;;;;;;10.04;78.60;98568.28;5057255;28;19936;-53
2023/02/17 12:22:46;;;;;;;;;;;;;;;10.00;78.75;98561.81;5069435;28;19977;-53
2023/02/17 12:25:19;;;;;;;;;;;;;;;10.04;78.64;98562.84;5058176;28;19970;-52
2023/02/17 12:27:49;;;;;;;;;;;;;;;10.07;78.10;98570.44;5064179;28;19932;-54
2023/02/17 12:30:38;;;;;;;;;;;;;;;10.05;77.81;98568.00;5057088;28;19978;-53
2023/02/17 12:33:17;;;;;;;;;;;;;;;10.00;78.10;98578.09;5071294;28;19974;-53
2023/02/17 12:35:53;;;;;;;;;;;;;;;10.02;77.85;98576.72;5064015;28;19928;-53
2023/02/17 12:38:24;;;;;;;;;;;;;;;9.94;78.20;98567.31;5063531;28;20288;-53
2023/02/17 12:40:55;;;;;;;;;;;;;;;10.02;78.05;98563.16;5072408;28;19924;-59
2023/02/17 12:43:24;;;;;;;;;;;;;;;9.98;78.01;98564.84;5068833;28;19978;-54
2023/02/17 12:45:53;;;;;;;;;;;;;;;10.03;77.74;98575.63;5066898;28;19925;-53
2023/02/17 12:48:24;;;;;;;;;;;;;;;10.05;77.97;98576.13;5070326;28;19929;-59
2023/02/17 12:50:53;;;;;;;;;;;;;;;10.09;77.62;98569.03;5069596;28;19933;-53
2023/02/17 12:53:24;;;;;;;;;;;;;;;10.11;77.73;98563.31;5071789;28;19928;-54
2023/02/17 12:55:53;;;;;;;;;;;;;;;10.12;77.58;98562.19;5061513;28;19932;-53
2023/02/17 12:58:21;;;;;;;;;;;;;;;10.20;77.44;98547.97;5059253;28;19932;-56
2023/02/17 13:00:50;;;;;;;;;;;;;;;10.21;77.23;98555.03;5063908;28;20384;-55
2023/02/17 13:03:18;;;;;;;;;;;;;;;10.27;77.19;98548.44;5075455;28;19924;-55
2023/02/17 13:05:48;;;;;;;;;;;;;;;10.33;76.90;98554.59;5071995;28;19925;-54
2023/02/17 13:08:16;;;;;;;;;;;;;;;10.27;77.20;98542.22;5067747;28;20301;-54
2023/02/17 13:10:45;;;;;;;;;;;;;;;10.27;76.82;98545.72;5069402;28;19944;-59
2023/02/17 13:13:25;;;;;;;;;;;;;;;10.28;77.02;98555.50;5069331;28;19929;-54
2023/02/17 13:16:01;;;;;;;;;;;;;;;10.32;76.52;98556.50;5071235;28;19962;-59
2023/02/17 13:18:29;;;;;;;;;;;;;;;10.31;76.68;98554.91;5070990;28;19935;-55
2023/02/17 13:21:00;;;;;;;;;;;;;;;10.29;76.81;98545.44;5072545;28;19939;-54
2023/02/17 13:23:34;;;;;;;;;;;;;;;10.38;76.52;98557.25;5064665;28;20357;-57
2023/02/17 13:26:25;;;;;;;;;;;;;;;10.30;76.96;98560.63;5069729;28;19984;-53
2023/02/17 13:28:56;;;;;;;;;;;;;;;10.35;76.83;98558.66;5067845;28;19998;-53
2023/02/17 13:31:49;;;;;;;;;;;;;;;10.40;76.58;98555.06;5064813;28;20006;-54